sensor_id;sensor_type;location;lat;lon;timestamp;P1;durP1;ratioP1;P2;durP2;ratioP2
5785;SDS011;2919;48.630;9.000;2024-02-26T00:00:28;5.43;;;3.17;;
5785;SDS011;2919;48.630;9.000;2024-02-26T00:02:54;7.20;;;3.33;;
5785;SDS011;2919;48.630;9.000;2024-02-26T00:05:19;5.23;;;3.10;;
5785;SDS011;2919;48.630;9.000;2024-02-26T00:07:45;5.57;;;3.27;;
5785;SDS011;2919;48.630;9.000;2024-02-26T00:10:12;9.70;;;3.90;;
5785;SDS011;2919;48.630;9.000;2024-02-26T00:12:38;7.63;;;3.30;;
5785;SDS011;2919;48.630;9.000;2024-02-26T00:15:04;5.67;;;2.97;;
5785;SDS011;2919;48.630;9.000;2024-02-26T00:17:33;11.50;;;3.00;;
5785;SDS011;2919;48.630;9.000;2024-02-26T00:19:58;3.20;;;1.87;;
5785;SDS011;2919;48.630;9.000;2024-02-26T00:22:25;10.73;;;3.93;;
5785;SDS011;2919;48.630;9.000;2024-02-26T00:24:51;7.37;;;4.17;;
5785;SDS011;2919;48.630;9.000;2024-02-26T00:27:16;7.93;;;4.13;;
5785;SDS011;2919;48.630;9.000;2024-02-26T00:29:42;11.07;;;4.23;;
5785;SDS011;2919;48.630;9.000;2024-02-26T00:32:07;10.30;;;4.67;;
5785;SDS011;2919;48.630;9.000;2024-02-26T00:34:33;6.00;;;3.40;;
5785;SDS011;2919;48.630;9.000;2024-02-26T00:36:58;10.23;;;4.23;;
5785;SDS011;2919;48.630;9.000;2024-02-26T00:39:24;8.33;;;3.40;;
5785;SDS011;2919;48.630;9.000;2024-02-26T00:41:49;6.10;;;3.07;;
5785;SDS011;2919;48.630;9.000;2024-02-26T00:44:16;14.90;;;4.40;;
5785;SDS011;2919;48.630;9.000;2024-02-26T00:46:42;2.23;;;1.50;;
5785;SDS011;2919;48.630;9.000;2024-02-26T00:49:07;5.50;;;2.80;;
5785;SDS011;2919;48.630;9.000;2024-02-26T00:51:33;7.40;;;3.30;;
5785;SDS011;2919;48.630;9.000;2024-02-26T00:53:58;7.50;;;2.40;;
5785;SDS011;2919;48.630;9.000;2024-02-26T00:56:24;7.77;;;3.33;;
5785;SDS011;2919;48.630;9.000;2024-02-26T00:58:49;6.53;;;2.50;;
5785;SDS011;2919;48.630;9.000;2024-02-26T01:01:16;4.60;;;2.80;;
5785;SDS011;2919;48.630;9.000;2024-02-26T01:03:41;4.50;;;2.40;;
5785;SDS011;2919;48.630;9.000;2024-02-26T01:06:07;5.70;;;2.50;;
5785;SDS011;2919;48.630;9.000;2024-02-26T01:08:32;4.63;;;1.80;;
5785;SDS011;2919;48.630;9.000;2024-02-26T01:11:00;6.40;;;2.50;;
5785;SDS011;2919;48.630;9.000;2024-02-26T01:13:26;3.37;;;2.07;;
5785;SDS011;2919;48.630;9.000;2024-02-26T01:15:51;6.50;;;2.77;;
5785;SDS011;2919;48.630;9.000;2024-02-26T01:18:17;4.80;;;2.10;;
5785;SDS011;2919;48.630;9.000;2024-02-26T01:20:43;4.23;;;1.80;;
5785;SDS011;2919;48.630;9.000;2024-02-26T01:23:08;5.03;;;2.33;;
5785;SDS011;2919;48.630;9.000;2024-02-26T01:25:34;2.43;;;1.47;;
5785;SDS011;2919;48.630;9.000;2024-02-26T01:27:59;2.30;;;1.20;;
5785;SDS011;2919;48.630;9.000;2024-02-26T01:30:25;1.67;;;1.00;;
5785;SDS011;2919;48.630;9.000;2024-02-26T01:32:50;2.10;;;0.70;;
5785;SDS011;2919;48.630;9.000;2024-02-26T01:35:16;2.80;;;1.57;;
5785;SDS011;2919;48.630;9.000;2024-02-26T01:37:41;2.07;;;1.00;;
5785;SDS011;2919;48.630;9.000;2024-02-26T01:40:07;1.23;;;0.67;;
5785;SDS011;2919;48.630;9.000;2024-02-26T01:42:34;1.53;;;0.80;;
5785;SDS011;2919;48.630;9.000;2024-02-26T01:45:03;1.47;;;0.70;;
5785;SDS011;2919;48.630;9.000;2024-02-26T01:47:29;2.87;;;0.90;;
5785;SDS011;2919;48.630;9.000;2024-02-26T01:49:55;1.20;;;0.60;;
5785;SDS011;2919;48.630;9.000;2024-02-26T01:52:20;1.20;;;0.50;;
5785;SDS011;2919;48.630;9.000;2024-02-26T01:54:47;4.90;;;0.77;;
5785;SDS011;2919;48.630;9.000;2024-02-26T01:57:12;4.40;;;1.13;;
5785;SDS011;2919;48.630;9.000;2024-02-26T01:59:39;3.00;;;1.10;;
5785;SDS011;2919;48.630;9.000;2024-02-26T02:02:06;2.30;;;0.90;;
5785;SDS011;2919;48.630;9.000;2024-02-26T02:04:34;3.30;;;1.07;;
5785;SDS011;2919;48.630;9.000;2024-02-26T02:07:00;1.57;;;0.87;;
5785;SDS011;2919;48.630;9.000;2024-02-26T02:09:27;1.83;;;0.60;;
5785;SDS011;2919;48.630;9.000;2024-02-26T02:11:53;1.47;;;0.90;;
5785;SDS011;2919;48.630;9.000;2024-02-26T02:14:19;1.20;;;0.60;;
5785;SDS011;2919;48.630;9.000;2024-02-26T02:16:45;1.00;;;0.40;;
5785;SDS011;2919;48.630;9.000;2024-02-26T02:19:13;1.10;;;0.50;;
5785;SDS011;2919;48.630;9.000;2024-02-26T02:21:38;1.20;;;0.70;;
5785;SDS011;2919;48.630;9.000;2024-02-26T02:24:04;2.80;;;0.60;;
5785;SDS011;2919;48.630;9.000;2024-02-26T02:26:29;1.23;;;0.60;;
5785;SDS011;2919;48.630;9.000;2024-02-26T02:28:55;3.60;;;0.70;;
5785;SDS011;2919;48.630;9.000;2024-02-26T02:31:21;1.10;;;0.53;;
5785;SDS011;2919;48.630;9.000;2024-02-26T02:33:47;1.80;;;0.70;;
5785;SDS011;2919;48.630;9.000;2024-02-26T02:36:13;1.70;;;0.90;;
5785;SDS011;2919;48.630;9.000;2024-02-26T02:38:39;1.30;;;0.60;;
5785;SDS011;2919;48.630;9.000;2024-02-26T02:41:17;3.17;;;1.23;;
5785;SDS011;2919;48.630;9.000;2024-02-26T02:43:43;1.30;;;0.70;;
5785;SDS011;2919;48.630;9.000;2024-02-26T02:46:09;1.80;;;0.70;;
5785;SDS011;2919;48.630;9.000;2024-02-26T02:48:36;2.20;;;0.60;;
5785;SDS011;2919;48.630;9.000;2024-02-26T02:51:02;1.30;;;0.60;;
5785;SDS011;2919;48.630;9.000;2024-02-26T02:53:28;1.50;;;0.63;;
5785;SDS011;2919;48.630;9.000;2024-02-26T02:55:53;1.70;;;0.63;;
5785;SDS011;2919;48.630;9.000;2024-02-26T02:58:19;1.30;;;0.70;;
5785;SDS011;2919;48.630;9.000;2024-02-26T03:00:47;1.30;;;0.50;;
5785;SDS011;2919;48.630;9.000;2024-02-26T03:03:13;3.67;;;0.70;;
5785;SDS011;2919;48.630;9.000;2024-02-26T03:05:38;1.60;;;0.60;;
5785;SDS011;2919;48.630;9.000;2024-02-26T03:08:04;1.20;;;0.60;;
5785;SDS011;2919;48.630;9.000;2024-02-26T03:10:29;1.40;;;0.70;;
5785;SDS011;2919;48.630;9.000;2024-02-26T03:12:55;1.80;;;0.70;;
5785;SDS011;2919;48.630;9.000;2024-02-26T03:15:21;1.20;;;0.60;;
5785;SDS011;2919;48.630;9.000;2024-02-26T03:17:46;1.10;;;0.50;;
5785;SDS011;2919;48.630;9.000;2024-02-26T03:20:12;1.80;;;0.70;;
5785;SDS011;2919;48.630;9.000;2024-02-26T03:22:40;1.67;;;0.60;;
5785;SDS011;2919;48.630;9.000;2024-02-26T03:25:06;1.60;;;0.70;;
5785;SDS011;2919;48.630;9.000;2024-02-26T03:27:32;1.67;;;0.60;;
5785;SDS011;2919;48.630;9.000;2024-02-26T03:29:58;4.07;;;1.00;;
5785;SDS011;2919;48.630;9.000;2024-02-26T03:32:23;2.07;;;0.80;;
5785;SDS011;2919;48.630;9.000;2024-02-26T03:34:49;1.67;;;0.83;;
5785;SDS011;2919;48.630;9.000;2024-02-26T03:37:14;1.97;;;0.70;;
5785;SDS011;2919;48.630;9.000;2024-02-26T03:39:40;1.40;;;0.70;;
5785;SDS011;2919;48.630;9.000;2024-02-26T03:42:05;1.50;;;0.80;;
5785;SDS011;2919;48.630;9.000;2024-02-26T03:44:31;2.07;;;0.97;;
5785;SDS011;2919;48.630;9.000;2024-02-26T03:46:56;1.80;;;0.83;;
5785;SDS011;2919;48.630;9.000;2024-02-26T03:49:22;1.83;;;0.80;;
5785;SDS011;2919;48.630;9.000;2024-02-26T03:51:48;4.00;;;0.97;;
5785;SDS011;2919;48.630;9.000;2024-02-26T03:54:13;1.90;;;1.00;;
5785;SDS011;2919;48.630;9.000;2024-02-26T03:56:39;1.77;;;0.80;;
5785;SDS011;2919;48.630;9.000;2024-02-26T03:59:04;1.57;;;0.77;;
5785;SDS011;2919;48.630;9.000;2024-02-26T04:01:30;1.57;;;0.80;;
5785;SDS011;2919;48.630;9.000;2024-02-26T04:03:55;1.70;;;0.90;;
5785;SDS011;2919;48.630;9.000;2024-02-26T04:06:21;1.97;;;1.07;;
5785;SDS011;2919;48.630;9.000;2024-02-26T04:08:47;4.77;;;0.93;;
5785;SDS011;2919;48.630;9.000;2024-02-26T04:11:13;1.70;;;0.80;;
5785;SDS011;2919;48.630;9.000;2024-02-26T04:13:42;7.13;;;1.20;;
5785;SDS011;2919;48.630;9.000;2024-02-26T04:16:10;3.83;;;1.20;;
5785;SDS011;2919;48.630;9.000;2024-02-26T04:18:36;1.77;;;0.90;;
5785;SDS011;2919;48.630;9.000;2024-02-26T04:21:02;7.87;;;1.20;;
5785;SDS011;2919;48.630;9.000;2024-02-26T04:23:28;3.13;;;0.70;;
5785;SDS011;2919;48.630;9.000;2024-02-26T04:25:54;2.57;;;0.97;;
5785;SDS011;2919;48.630;9.000;2024-02-26T04:28:19;3.50;;;1.33;;
5785;SDS011;2919;48.630;9.000;2024-02-26T04:30:50;1.60;;;0.50;;
5785;SDS011;2919;48.630;9.000;2024-02-26T04:33:16;2.03;;;0.77;;
5785;SDS011;2919;48.630;9.000;2024-02-26T04:35:41;1.10;;;0.50;;
5785;SDS011;2919;48.630;9.000;2024-02-26T04:38:07;1.63;;;0.60;;
5785;SDS011;2919;48.630;9.000;2024-02-26T04:40:33;1.13;;;0.40;;
5785;SDS011;2919;48.630;9.000;2024-02-26T04:42:58;1.07;;;0.40;;
5785;SDS011;2919;48.630;9.000;2024-02-26T04:45:24;1.10;;;0.50;;
5785;SDS011;2919;48.630;9.000;2024-02-26T04:47:49;1.07;;;0.40;;
5785;SDS011;2919;48.630;9.000;2024-02-26T04:50:15;1.00;;;0.40;;
5785;SDS011;2919;48.630;9.000;2024-02-26T04:52:41;1.40;;;0.70;;
5785;SDS011;2919;48.630;9.000;2024-02-26T04:55:06;1.00;;;0.40;;
5785;SDS011;2919;48.630;9.000;2024-02-26T04:57:32;1.40;;;0.50;;
5785;SDS011;2919;48.630;9.000;2024-02-26T04:59:57;1.10;;;0.50;;
5785;SDS011;2919;48.630;9.000;2024-02-26T05:02:23;1.30;;;0.60;;
5785;SDS011;2919;48.630;9.000;2024-02-26T05:04:49;1.30;;;0.60;;
5785;SDS011;2919;48.630;9.000;2024-02-26T05:07:14;1.30;;;0.60;;
5785;SDS011;2919;48.630;9.000;2024-02-26T05:09:42;2.60;;;0.70;;
5785;SDS011;2919;48.630;9.000;2024-02-26T05:12:08;1.50;;;0.77;;
5785;SDS011;2919;48.630;9.000;2024-02-26T05:14:34;3.70;;;1.63;;
5785;SDS011;2919;48.630;9.000;2024-02-26T05:17:00;2.47;;;0.80;;
5785;SDS011;2919;48.630;9.000;2024-02-26T05:19:25;12.40;;;0.93;;
5785;SDS011;2919;48.630;9.000;2024-02-26T05:21:50;3.07;;;1.00;;
5785;SDS011;2919;48.630;9.000;2024-02-26T05:24:16;1.60;;;0.70;;
5785;SDS011;2919;48.630;9.000;2024-02-26T05:26:42;2.50;;;1.20;;
5785;SDS011;2919;48.630;9.000;2024-02-26T05:29:08;2.13;;;1.00;;
5785;SDS011;2919;48.630;9.000;2024-02-26T05:31:34;1.30;;;0.70;;
5785;SDS011;2919;48.630;9.000;2024-02-26T05:34:00;1.50;;;0.80;;
5785;SDS011;2919;48.630;9.000;2024-02-26T05:36:25;2.50;;;1.30;;
5785;SDS011;2919;48.630;9.000;2024-02-26T05:38:51;2.30;;;0.87;;
5785;SDS011;2919;48.630;9.000;2024-02-26T05:41:16;1.30;;;0.57;;
5785;SDS011;2919;48.630;9.000;2024-02-26T05:43:51;1.67;;;0.87;;
5785;SDS011;2919;48.630;9.000;2024-02-26T05:46:17;2.20;;;0.80;;
5785;SDS011;2919;48.630;9.000;2024-02-26T05:48:44;1.57;;;1.00;;
5785;SDS011;2919;48.630;9.000;2024-02-26T05:51:09;2.30;;;1.10;;
5785;SDS011;2919;48.630;9.000;2024-02-26T05:53:35;1.27;;;0.70;;
5785;SDS011;2919;48.630;9.000;2024-02-26T05:56:00;1.67;;;0.80;;
5785;SDS011;2919;48.630;9.000;2024-02-26T05:58:26;2.43;;;1.00;;
5785;SDS011;2919;48.630;9.000;2024-02-26T06:00:51;1.70;;;0.73;;
5785;SDS011;2919;48.630;9.000;2024-02-26T06:03:17;3.40;;;1.17;;
5785;SDS011;2919;48.630;9.000;2024-02-26T06:05:42;1.60;;;1.00;;
5785;SDS011;2919;48.630;9.000;2024-02-26T06:08:08;2.30;;;0.73;;
5785;SDS011;2919;48.630;9.000;2024-02-26T06:10:34;2.90;;;1.00;;
5785;SDS011;2919;48.630;9.000;2024-02-26T06:12:59;1.63;;;0.77;;
5785;SDS011;2919;48.630;9.000;2024-02-26T06:15:25;3.40;;;1.43;;
5785;SDS011;2919;48.630;9.000;2024-02-26T06:17:50;3.37;;;1.43;;
5785;SDS011;2919;48.630;9.000;2024-02-26T06:20:16;5.57;;;2.13;;
5785;SDS011;2919;48.630;9.000;2024-02-26T06:22:41;5.47;;;2.87;;
5785;SDS011;2919;48.630;9.000;2024-02-26T06:25:07;2.93;;;2.00;;
5785;SDS011;2919;48.630;9.000;2024-02-26T06:27:33;11.23;;;4.30;;
5785;SDS011;2919;48.630;9.000;2024-02-26T06:29:59;2.23;;;1.37;;
5785;SDS011;2919;48.630;9.000;2024-02-26T06:32:24;5.57;;;2.40;;
5785;SDS011;2919;48.630;9.000;2024-02-26T06:34:52;1.40;;;1.10;;
5785;SDS011;2919;48.630;9.000;2024-02-26T06:37:18;5.63;;;1.30;;
5785;SDS011;2919;48.630;9.000;2024-02-26T06:39:43;2.53;;;1.27;;
5785;SDS011;2919;48.630;9.000;2024-02-26T06:42:09;9.00;;;2.53;;
5785;SDS011;2919;48.630;9.000;2024-02-26T06:44:34;2.97;;;1.57;;
5785;SDS011;2919;48.630;9.000;2024-02-26T06:47:00;4.80;;;1.67;;
5785;SDS011;2919;48.630;9.000;2024-02-26T06:49:26;3.90;;;1.40;;
5785;SDS011;2919;48.630;9.000;2024-02-26T06:51:53;4.90;;;2.70;;
5785;SDS011;2919;48.630;9.000;2024-02-26T06:54:18;7.27;;;2.93;;
5785;SDS011;2919;48.630;9.000;2024-02-26T06:56:44;5.10;;;2.80;;
5785;SDS011;2919;48.630;9.000;2024-02-26T06:59:09;2.47;;;1.20;;
5785;SDS011;2919;48.630;9.000;2024-02-26T07:01:35;3.00;;;1.70;;
5785;SDS011;2919;48.630;9.000;2024-02-26T07:04:00;3.83;;;1.90;;
5785;SDS011;2919;48.630;9.000;2024-02-26T07:06:29;2.90;;;0.90;;
5785;SDS011;2919;48.630;9.000;2024-02-26T07:08:55;2.40;;;1.10;;
5785;SDS011;2919;48.630;9.000;2024-02-26T07:11:20;1.77;;;0.80;;
5785;SDS011;2919;48.630;9.000;2024-02-26T07:13:46;3.57;;;0.70;;
5785;SDS011;2919;48.630;9.000;2024-02-26T07:16:13;1.60;;;0.87;;
5785;SDS011;2919;48.630;9.000;2024-02-26T07:18:39;1.40;;;0.60;;
5785;SDS011;2919;48.630;9.000;2024-02-26T07:21:04;1.80;;;0.70;;
5785;SDS011;2919;48.630;9.000;2024-02-26T07:23:30;2.93;;;1.30;;
5785;SDS011;2919;48.630;9.000;2024-02-26T07:25:56;2.27;;;1.07;;
5785;SDS011;2919;48.630;9.000;2024-02-26T07:28:22;3.17;;;1.60;;
5785;SDS011;2919;48.630;9.000;2024-02-26T07:30:47;2.93;;;1.50;;
5785;SDS011;2919;48.630;9.000;2024-02-26T07:33:13;1.83;;;1.03;;
5785;SDS011;2919;48.630;9.000;2024-02-26T07:35:38;2.40;;;1.13;;
5785;SDS011;2919;48.630;9.000;2024-02-26T07:38:07;3.50;;;1.70;;
5785;SDS011;2919;48.630;9.000;2024-02-26T07:40:32;2.40;;;1.47;;
5785;SDS011;2919;48.630;9.000;2024-02-26T07:42:58;1.70;;;1.03;;
5785;SDS011;2919;48.630;9.000;2024-02-26T07:45:23;34.67;;;6.50;;
5785;SDS011;2919;48.630;9.000;2024-02-26T07:47:49;8.03;;;3.00;;
5785;SDS011;2919;48.630;9.000;2024-02-26T07:50:16;1.40;;;0.80;;
5785;SDS011;2919;48.630;9.000;2024-02-26T07:52:42;1.10;;;0.57;;
5785;SDS011;2919;48.630;9.000;2024-02-26T07:55:07;2.03;;;0.73;;
5785;SDS011;2919;48.630;9.000;2024-02-26T07:57:33;1.47;;;0.57;;
5785;SDS011;2919;48.630;9.000;2024-02-26T07:59:59;1.20;;;0.60;;
5785;SDS011;2919;48.630;9.000;2024-02-26T08:02:27;1.10;;;0.50;;
5785;SDS011;2919;48.630;9.000;2024-02-26T08:04:53;2.37;;;0.90;;
5785;SDS011;2919;48.630;9.000;2024-02-26T08:07:18;3.53;;;1.13;;
5785;SDS011;2919;48.630;9.000;2024-02-26T08:09:46;2.60;;;0.90;;
5785;SDS011;2919;48.630;9.000;2024-02-26T08:12:11;7.80;;;1.37;;
5785;SDS011;2919;48.630;9.000;2024-02-26T08:14:37;2.37;;;0.87;;
5785;SDS011;2919;48.630;9.000;2024-02-26T08:17:02;1.50;;;0.80;;
5785;SDS011;2919;48.630;9.000;2024-02-26T08:19:28;1.07;;;0.50;;
5785;SDS011;2919;48.630;9.000;2024-02-26T08:21:54;1.80;;;0.87;;
5785;SDS011;2919;48.630;9.000;2024-02-26T08:24:19;1.47;;;0.93;;
5785;SDS011;2919;48.630;9.000;2024-02-26T08:26:45;2.03;;;0.80;;
5785;SDS011;2919;48.630;9.000;2024-02-26T08:29:10;1.83;;;1.10;;
5785;SDS011;2919;48.630;9.000;2024-02-26T08:31:36;1.43;;;0.77;;
5785;SDS011;2919;48.630;9.000;2024-02-26T08:34:02;1.20;;;0.60;;
5785;SDS011;2919;48.630;9.000;2024-02-26T08:36:29;1.40;;;0.70;;
5785;SDS011;2919;48.630;9.000;2024-02-26T08:38:56;2.13;;;1.07;;
5785;SDS011;2919;48.630;9.000;2024-02-26T08:41:22;2.47;;;1.07;;
5785;SDS011;2919;48.630;9.000;2024-02-26T08:43:47;2.93;;;1.37;;
5785;SDS011;2919;48.630;9.000;2024-02-26T08:46:13;1.90;;;1.30;;
5785;SDS011;2919;48.630;9.000;2024-02-26T08:48:39;2.03;;;1.20;;
5785;SDS011;2919;48.630;9.000;2024-02-26T08:51:06;1.20;;;0.70;;
5785;SDS011;2919;48.630;9.000;2024-02-26T08:53:32;1.10;;;0.50;;
5785;SDS011;2919;48.630;9.000;2024-02-26T08:55:57;1.30;;;0.60;;
5785;SDS011;2919;48.630;9.000;2024-02-26T08:58:23;1.60;;;0.70;;
5785;SDS011;2919;48.630;9.000;2024-02-26T09:00:48;1.50;;;0.87;;
5785;SDS011;2919;48.630;9.000;2024-02-26T09:03:14;1.27;;;0.70;;
5785;SDS011;2919;48.630;9.000;2024-02-26T09:05:39;1.30;;;0.60;;
5785;SDS011;2919;48.630;9.000;2024-02-26T09:08:05;1.23;;;0.73;;
5785;SDS011;2919;48.630;9.000;2024-02-26T09:10:31;1.70;;;1.10;;
5785;SDS011;2919;48.630;9.000;2024-02-26T09:12:57;1.90;;;0.77;;
5785;SDS011;2919;48.630;9.000;2024-02-26T09:15:23;1.30;;;0.70;;
5785;SDS011;2919;48.630;9.000;2024-02-26T09:17:49;2.50;;;0.83;;
5785;SDS011;2919;48.630;9.000;2024-02-26T09:20:15;1.80;;;0.80;;
5785;SDS011;2919;48.630;9.000;2024-02-26T09:22:44;1.90;;;0.93;;
5785;SDS011;2919;48.630;9.000;2024-02-26T09:25:13;2.50;;;1.00;;
5785;SDS011;2919;48.630;9.000;2024-02-26T09:27:42;2.57;;;1.23;;
5785;SDS011;2919;48.630;9.000;2024-02-26T09:30:11;5.00;;;1.70;;
5785;SDS011;2919;48.630;9.000;2024-02-26T09:32:37;2.37;;;1.47;;
5785;SDS011;2919;48.630;9.000;2024-02-26T09:35:03;3.10;;;1.60;;
5785;SDS011;2919;48.630;9.000;2024-02-26T09:37:30;2.20;;;1.10;;
5785;SDS011;2919;48.630;9.000;2024-02-26T09:39:55;2.47;;;1.40;;
5785;SDS011;2919;48.630;9.000;2024-02-26T09:42:21;1.70;;;1.10;;
5785;SDS011;2919;48.630;9.000;2024-02-26T09:44:51;2.77;;;1.50;;
5785;SDS011;2919;48.630;9.000;2024-02-26T09:47:18;3.00;;;1.50;;
5785;SDS011;2919;48.630;9.000;2024-02-26T09:49:45;2.23;;;1.73;;
5785;SDS011;2919;48.630;9.000;2024-02-26T09:52:12;3.27;;;1.87;;
5785;SDS011;2919;48.630;9.000;2024-02-26T09:54:40;2.50;;;1.20;;
5785;SDS011;2919;48.630;9.000;2024-02-26T09:57:06;2.57;;;1.30;;
5785;SDS011;2919;48.630;9.000;2024-02-26T09:59:40;1.67;;;1.03;;
5785;SDS011;2919;48.630;9.000;2024-02-26T10:02:13;31.00;;;1.37;;
5785;SDS011;2919;48.630;9.000;2024-02-26T10:04:40;1.50;;;0.90;;
5785;SDS011;2919;48.630;9.000;2024-02-26T10:07:09;1.87;;;1.00;;
5785;SDS011;2919;48.630;9.000;2024-02-26T10:09:38;2.40;;;1.20;;
5785;SDS011;2919;48.630;9.000;2024-02-26T10:12:05;1.83;;;1.00;;
5785;SDS011;2919;48.630;9.000;2024-02-26T10:14:32;3.30;;;1.10;;
5785;SDS011;2919;48.630;9.000;2024-02-26T10:16:58;1.60;;;0.77;;
5785;SDS011;2919;48.630;9.000;2024-02-26T10:19:26;1.97;;;0.83;;
5785;SDS011;2919;48.630;9.000;2024-02-26T10:21:56;2.07;;;0.87;;
5785;SDS011;2919;48.630;9.000;2024-02-26T10:24:22;1.47;;;0.70;;
5785;SDS011;2919;48.630;9.000;2024-02-26T10:26:48;2.07;;;1.17;;
5785;SDS011;2919;48.630;9.000;2024-02-26T10:29:14;1.20;;;0.53;;
5785;SDS011;2919;48.630;9.000;2024-02-26T10:31:42;1.40;;;0.70;;
5785;SDS011;2919;48.630;9.000;2024-02-26T10:34:08;1.50;;;0.83;;
5785;SDS011;2919;48.630;9.000;2024-02-26T10:36:34;1.77;;;0.80;;
5785;SDS011;2919;48.630;9.000;2024-02-26T10:39:01;2.23;;;1.37;;
5785;SDS011;2919;48.630;9.000;2024-02-26T10:41:29;1.90;;;0.93;;
5785;SDS011;2919;48.630;9.000;2024-02-26T10:43:55;1.40;;;0.87;;
5785;SDS011;2919;48.630;9.000;2024-02-26T10:46:20;1.57;;;0.80;;
5785;SDS011;2919;48.630;9.000;2024-02-26T10:48:52;1.60;;;0.70;;
5785;SDS011;2919;48.630;9.000;2024-02-26T10:51:20;1.87;;;0.90;;
5785;SDS011;2919;48.630;9.000;2024-02-26T10:53:49;2.57;;;0.70;;
5785;SDS011;2919;48.630;9.000;2024-02-26T10:56:21;1.60;;;0.77;;
5785;SDS011;2919;48.630;9.000;2024-02-26T10:58:50;2.17;;;0.67;;
5785;SDS011;2919;48.630;9.000;2024-02-26T11:01:15;1.70;;;0.73;;
5785;SDS011;2919;48.630;9.000;2024-02-26T11:03:41;4.17;;;0.80;;
5785;SDS011;2919;48.630;9.000;2024-02-26T11:06:07;1.20;;;0.50;;
5785;SDS011;2919;48.630;9.000;2024-02-26T11:08:33;1.20;;;0.60;;
5785;SDS011;2919;48.630;9.000;2024-02-26T11:11:00;2.30;;;0.90;;
5785;SDS011;2919;48.630;9.000;2024-02-26T11:13:26;1.40;;;0.80;;
5785;SDS011;2919;48.630;9.000;2024-02-26T11:15:55;2.03;;;0.73;;
5785;SDS011;2919;48.630;9.000;2024-02-26T11:18:25;1.60;;;0.80;;
5785;SDS011;2919;48.630;9.000;2024-02-26T11:20:52;1.77;;;0.60;;
5785;SDS011;2919;48.630;9.000;2024-02-26T11:23:22;2.20;;;1.00;;
5785;SDS011;2919;48.630;9.000;2024-02-26T11:25:48;2.30;;;1.20;;
5785;SDS011;2919;48.630;9.000;2024-02-26T11:28:17;2.03;;;1.00;;
5785;SDS011;2919;48.630;9.000;2024-02-26T11:30:46;1.97;;;0.70;;
5785;SDS011;2919;48.630;9.000;2024-02-26T11:33:14;2.60;;;0.80;;
5785;SDS011;2919;48.630;9.000;2024-02-26T11:35:41;1.97;;;0.70;;
5785;SDS011;2919;48.630;9.000;2024-02-26T11:38:07;1.70;;;0.90;;
5785;SDS011;2919;48.630;9.000;2024-02-26T11:40:33;6.00;;;1.17;;
5785;SDS011;2919;48.630;9.000;2024-02-26T11:43:03;1.40;;;0.60;;
5785;SDS011;2919;48.630;9.000;2024-02-26T11:45:47;1.60;;;0.80;;
5785;SDS011;2919;48.630;9.000;2024-02-26T11:48:14;2.03;;;0.80;;
5785;SDS011;2919;48.630;9.000;2024-02-26T11:50:43;1.87;;;0.80;;
5785;SDS011;2919;48.630;9.000;2024-02-26T11:53:24;11.43;;;0.97;;
5785;SDS011;2919;48.630;9.000;2024-02-26T11:58:44;1.40;;;0.70;;
5785;SDS011;2919;48.630;9.000;2024-02-26T12:04:05;1.40;;;0.60;;
5785;SDS011;2919;48.630;9.000;2024-02-26T12:06:45;8.10;;;1.20;;
5785;SDS011;2919;48.630;9.000;2024-02-26T12:09:12;1.50;;;0.70;;
5785;SDS011;2919;48.630;9.000;2024-02-26T12:11:39;1.30;;;0.60;;
5785;SDS011;2919;48.630;9.000;2024-02-26T12:14:05;2.27;;;0.80;;
5785;SDS011;2919;48.630;9.000;2024-02-26T12:16:39;2.77;;;1.10;;
5785;SDS011;2919;48.630;9.000;2024-02-26T12:19:08;5.00;;;1.03;;
5785;SDS011;2919;48.630;9.000;2024-02-26T12:21:35;1.70;;;0.80;;
5785;SDS011;2919;48.630;9.000;2024-02-26T12:24:06;2.27;;;0.70;;
5785;SDS011;2919;48.630;9.000;2024-02-26T12:26:39;1.83;;;0.90;;
5785;SDS011;2919;48.630;9.000;2024-02-26T12:29:05;2.00;;;1.10;;
5785;SDS011;2919;48.630;9.000;2024-02-26T12:31:31;2.17;;;1.10;;
5785;SDS011;2919;48.630;9.000;2024-02-26T12:33:58;1.50;;;0.60;;
5785;SDS011;2919;48.630;9.000;2024-02-26T12:36:27;2.13;;;0.60;;
5785;SDS011;2919;48.630;9.000;2024-02-26T12:38:53;11.40;;;1.03;;
5785;SDS011;2919;48.630;9.000;2024-02-26T12:41:19;1.47;;;0.70;;
5785;SDS011;2919;48.630;9.000;2024-02-26T12:43:45;7.50;;;0.93;;
5785;SDS011;2919;48.630;9.000;2024-02-26T12:46:11;1.87;;;0.70;;
5785;SDS011;2919;48.630;9.000;2024-02-26T12:48:37;3.50;;;1.00;;
5785;SDS011;2919;48.630;9.000;2024-02-26T12:51:04;1.30;;;0.60;;
5785;SDS011;2919;48.630;9.000;2024-02-26T12:53:30;2.43;;;0.87;;
5785;SDS011;2919;48.630;9.000;2024-02-26T12:55:56;2.50;;;0.80;;
5785;SDS011;2919;48.630;9.000;2024-02-26T12:58:23;1.50;;;0.70;;
5785;SDS011;2919;48.630;9.000;2024-02-26T13:00:52;1.23;;;0.50;;
5785;SDS011;2919;48.630;9.000;2024-02-26T13:03:19;1.20;;;0.60;;
5785;SDS011;2919;48.630;9.000;2024-02-26T13:05:46;1.50;;;0.63;;
5785;SDS011;2919;48.630;9.000;2024-02-26T13:08:18;2.17;;;0.83;;
5785;SDS011;2919;48.630;9.000;2024-02-26T13:10:47;2.37;;;0.77;;
5785;SDS011;2919;48.630;9.000;2024-02-26T13:13:15;1.20;;;0.50;;
5785;SDS011;2919;48.630;9.000;2024-02-26T13:15:42;1.10;;;0.50;;
5785;SDS011;2919;48.630;9.000;2024-02-26T13:18:12;1.83;;;0.50;;
5785;SDS011;2919;48.630;9.000;2024-02-26T13:20:38;2.20;;;1.40;;
5785;SDS011;2919;48.630;9.000;2024-02-26T13:23:08;1.10;;;0.50;;
5785;SDS011;2919;48.630;9.000;2024-02-26T13:25:36;1.50;;;0.53;;
5785;SDS011;2919;48.630;9.000;2024-02-26T13:28:06;1.10;;;0.50;;
5785;SDS011;2919;48.630;9.000;2024-02-26T13:30:33;1.10;;;0.40;;
5785;SDS011;2919;48.630;9.000;2024-02-26T13:33:06;1.50;;;0.53;;
5785;SDS011;2919;48.630;9.000;2024-02-26T13:35:36;1.13;;;0.50;;
5785;SDS011;2919;48.630;9.000;2024-02-26T13:38:03;1.10;;;0.47;;
5785;SDS011;2919;48.630;9.000;2024-02-26T13:40:32;1.10;;;0.47;;
5785;SDS011;2919;48.630;9.000;2024-02-26T13:42:59;1.10;;;0.40;;
5785;SDS011;2919;48.630;9.000;2024-02-26T13:45:25;1.20;;;0.50;;
5785;SDS011;2919;48.630;9.000;2024-02-26T13:47:51;1.20;;;0.50;;
5785;SDS011;2919;48.630;9.000;2024-02-26T13:50:16;1.10;;;0.50;;
5785;SDS011;2919;48.630;9.000;2024-02-26T13:52:46;1.30;;;0.50;;
5785;SDS011;2919;48.630;9.000;2024-02-26T13:55:12;1.10;;;0.50;;
5785;SDS011;2919;48.630;9.000;2024-02-26T13:57:39;1.20;;;0.50;;
5785;SDS011;2919;48.630;9.000;2024-02-26T14:00:05;1.70;;;0.53;;
5785;SDS011;2919;48.630;9.000;2024-02-26T14:02:32;1.10;;;0.50;;
5785;SDS011;2919;48.630;9.000;2024-02-26T14:05:01;1.20;;;0.50;;
5785;SDS011;2919;48.630;9.000;2024-02-26T14:07:28;1.20;;;0.50;;
5785;SDS011;2919;48.630;9.000;2024-02-26T14:09:54;1.10;;;0.40;;
5785;SDS011;2919;48.630;9.000;2024-02-26T14:12:20;1.10;;;0.40;;
5785;SDS011;2919;48.630;9.000;2024-02-26T14:14:46;1.20;;;0.53;;
5785;SDS011;2919;48.630;9.000;2024-02-26T14:17:13;2.20;;;0.87;;
5785;SDS011;2919;48.630;9.000;2024-02-26T14:19:39;1.40;;;0.70;;
5785;SDS011;2919;48.630;9.000;2024-02-26T14:22:10;1.27;;;0.60;;
5785;SDS011;2919;48.630;9.000;2024-02-26T14:24:36;1.10;;;0.40;;
5785;SDS011;2919;48.630;9.000;2024-02-26T14:27:01;1.20;;;0.47;;
5785;SDS011;2919;48.630;9.000;2024-02-26T14:29:27;1.20;;;0.50;;
5785;SDS011;2919;48.630;9.000;2024-02-26T14:31:53;1.30;;;0.60;;
5785;SDS011;2919;48.630;9.000;2024-02-26T14:34:21;1.70;;;0.60;;
5785;SDS011;2919;48.630;9.000;2024-02-26T14:36:47;1.70;;;0.60;;
5785;SDS011;2919;48.630;9.000;2024-02-26T14:39:12;1.30;;;0.50;;
5785;SDS011;2919;48.630;9.000;2024-02-26T14:41:39;1.77;;;0.60;;
5785;SDS011;2919;48.630;9.000;2024-02-26T14:44:04;1.30;;;0.50;;
5785;SDS011;2919;48.630;9.000;2024-02-26T14:46:30;1.20;;;0.53;;
5785;SDS011;2919;48.630;9.000;2024-02-26T14:48:55;1.30;;;0.50;;
5785;SDS011;2919;48.630;9.000;2024-02-26T14:51:24;1.30;;;0.50;;
5785;SDS011;2919;48.630;9.000;2024-02-26T14:53:49;1.20;;;0.50;;
5785;SDS011;2919;48.630;9.000;2024-02-26T14:56:15;1.10;;;0.40;;
5785;SDS011;2919;48.630;9.000;2024-02-26T14:58:41;1.10;;;0.50;;
5785;SDS011;2919;48.630;9.000;2024-02-26T15:01:06;1.20;;;0.50;;
5785;SDS011;2919;48.630;9.000;2024-02-26T15:03:32;1.57;;;0.70;;
5785;SDS011;2919;48.630;9.000;2024-02-26T15:05:58;1.37;;;0.70;;
5785;SDS011;2919;48.630;9.000;2024-02-26T15:08:23;2.63;;;0.90;;
5785;SDS011;2919;48.630;9.000;2024-02-26T15:10:49;1.10;;;0.47;;
5785;SDS011;2919;48.630;9.000;2024-02-26T15:13:15;1.30;;;0.60;;
5785;SDS011;2919;48.630;9.000;2024-02-26T15:15:41;1.20;;;0.50;;